Impacts METAR Board
IDs:

KFLL - Ft Lauderdale-Hollyw, FL, US

Updated at: 1300 UTC 15 Jul 2020
Potential Impact None Slight Moderate High
Time 15/01Z 15/02Z 15/03Z 15/04Z 15/05Z 15/06Z 15/07Z 15/08Z 15/09Z 15/10Z 15/11Z 15/12Z 15/13Z
Temp81 82 79 79 80 79 79 79 80 80 81 83 85
Dewpt71 71 73 75 75 75 75 74 74 75 76 76 76
Altim30.06 30.05 30.08 30.08 30.05 30.03 30.02 30.01 30.01 30.02 30.03 30.04 30.05
VIS10 10 10 10 10 10 10 10 10 10 10 10 10
CIG170 190 200 200 -- -- -- -- -- -- -- -- --
CoverBKNBKNBKNBKNSCTSCTCLRFEWCLRFEWSCTFEWFEW
FltCatVFRVFRVFRVFRVFRVFRVFRVFRVFRVFRVFRVFRVFR
WX-RA------------------------
WDir10017033035000000000280
WSpd4 4 4 4 0 0 0 0 0 0 0 0 3
WGst-- -- -- -- -- -- -- -- -- -- -- -- --
Raw hourly METARs
KFLL 150053Z 10004KT 10SM -RA FEW030 FEW080 SCT110 BKN170 BKN250 27/22 A3006 RMK AO2 RAB53 SLP178 P0000 T02720217
KFLL 150153Z 17004KT 10SM BKN190 28/22 A3005 RMK AO2 RAE00 SLP177 P0001 T02780217
KFLL 150253Z 33004KT 10SM FEW100 BKN200 26/23 A3008 RMK AO2 SLP186 60001 T02610228 53009
KFLL 150353Z 35004KT 10SM FEW100 BKN200 26/24 A3008 RMK AO2 SLP184 T02610239
KFLL 150453Z 00000KT 10SM SCT200 27/24 A3005 RMK AO2 SLP175 T02670239 403390239
KFLL 150553Z 00000KT 10SM SCT200 26/24 A3003 RMK AO2 SLP170 60001 T02610239 10283 20256 58016
KFLL 150653Z 00000KT 10SM CLR 26/24 A3002 RMK AO2 SLP164 T02610239
KFLL 150753Z 00000KT 10SM FEW200 26/23 A3001 RMK AO2 SLP161 T02610233
KFLL 150853Z 00000KT 10SM CLR 27/23 A3001 RMK AO2 SLP161 T02670233 55008
KFLL 150953Z 00000KT 10SM FEW200 27/24 A3002 RMK AO2 SLP164 T02670239
KFLL 151053Z 00000KT 10SM FEW025 SCT250 27/24 A3003 RMK AO2 SLP168 T02720244
KFLL 151153Z 00000KT 10SM FEW028 FEW250 28/24 A3004 RMK AO2 SLP172 70022 T02830244 10283 20256 53010
KFLL 151253Z 28003KT 10SM FEW025 FEW250 29/24 A3005 RMK AO2 SLP176 T02940244



Page loaded:  13:14 UTC  |   06:14 AM Pacific  |   07:14 AM Mountain  |   08:14 AM Central  |   09:14 AM Eastern

 

ADVISORIES

FORECASTS

FORECASTS

OBSERVATIONS

USER TOOLS

ABOUT US